sensor_id;sensor_type;location;lat;lon;timestamp;P1;durP1;ratioP1;P2;durP2;ratioP2
572;SDS011;271;51.114;13.780;2023-08-20T00:02:08;25.57;;;13.23;;
572;SDS011;271;51.114;13.780;2023-08-20T00:05:02;23.50;;;13.47;;
572;SDS011;271;51.114;13.780;2023-08-20T00:07:54;25.20;;;14.67;;
572;SDS011;271;51.114;13.780;2023-08-20T00:10:44;25.17;;;13.83;;
572;SDS011;271;51.114;13.780;2023-08-20T00:13:34;25.33;;;13.87;;
572;SDS011;271;51.114;13.780;2023-08-20T00:16:26;23.50;;;13.27;;
572;SDS011;271;51.114;13.780;2023-08-20T00:19:18;25.87;;;14.80;;
572;SDS011;271;51.114;13.780;2023-08-20T00:22:07;24.23;;;13.00;;
572;SDS011;271;51.114;13.780;2023-08-20T00:24:59;25.93;;;13.63;;
572;SDS011;271;51.114;13.780;2023-08-20T00:27:55;24.47;;;13.23;;
572;SDS011;271;51.114;13.780;2023-08-20T00:30:45;22.60;;;12.57;;
572;SDS011;271;51.114;13.780;2023-08-20T00:33:37;24.30;;;13.13;;
572;SDS011;271;51.114;13.780;2023-08-20T00:36:26;25.03;;;13.97;;
572;SDS011;271;51.114;13.780;2023-08-20T00:39:15;25.43;;;13.50;;
572;SDS011;271;51.114;13.780;2023-08-20T00:42:03;24.17;;;13.77;;
572;SDS011;271;51.114;13.780;2023-08-20T00:45:06;24.97;;;13.10;;
572;SDS011;271;51.114;13.780;2023-08-20T00:47:55;24.17;;;12.77;;
572;SDS011;271;51.114;13.780;2023-08-20T00:50:51;22.80;;;12.50;;
572;SDS011;271;51.114;13.780;2023-08-20T00:53:40;25.30;;;12.93;;
572;SDS011;271;51.114;13.780;2023-08-20T00:56:35;24.43;;;12.40;;
572;SDS011;271;51.114;13.780;2023-08-20T00:59:35;25.67;;;14.40;;
572;SDS011;271;51.114;13.780;2023-08-20T01:02:27;26.27;;;13.27;;
572;SDS011;271;51.114;13.780;2023-08-20T01:05:26;24.63;;;13.60;;
572;SDS011;271;51.114;13.780;2023-08-20T01:08:36;23.93;;;13.03;;
572;SDS011;271;51.114;13.780;2023-08-20T01:11:33;24.53;;;14.10;;
572;SDS011;271;51.114;13.780;2023-08-20T01:14:29;24.53;;;13.37;;
572;SDS011;271;51.114;13.780;2023-08-20T01:17:18;24.43;;;13.70;;
572;SDS011;271;51.114;13.780;2023-08-20T01:20:15;24.83;;;12.67;;
572;SDS011;271;51.114;13.780;2023-08-20T01:27:00;25.17;;;13.37;;
572;SDS011;271;51.114;13.780;2023-08-20T01:30:01;23.37;;;13.00;;
572;SDS011;271;51.114;13.780;2023-08-20T01:32:53;23.90;;;13.20;;
572;SDS011;271;51.114;13.780;2023-08-20T01:35:42;23.50;;;12.87;;
572;SDS011;271;51.114;13.780;2023-08-20T01:38:31;23.30;;;12.20;;
572;SDS011;271;51.114;13.780;2023-08-20T01:41:22;24.20;;;13.00;;
572;SDS011;271;51.114;13.780;2023-08-20T01:44:11;24.60;;;12.97;;
572;SDS011;271;51.114;13.780;2023-08-20T01:47:04;25.03;;;12.80;;
572;SDS011;271;51.114;13.780;2023-08-20T01:49:53;23.80;;;12.80;;
572;SDS011;271;51.114;13.780;2023-08-20T01:52:45;26.57;;;13.20;;
572;SDS011;271;51.114;13.780;2023-08-20T01:55:36;22.70;;;12.53;;
572;SDS011;271;51.114;13.780;2023-08-20T01:58:27;24.27;;;13.30;;
572;SDS011;271;51.114;13.780;2023-08-20T02:01:21;24.97;;;13.10;;
572;SDS011;271;51.114;13.780;2023-08-20T02:04:14;24.23;;;12.43;;
572;SDS011;271;51.114;13.780;2023-08-20T02:07:06;25.67;;;12.13;;
572;SDS011;271;51.114;13.780;2023-08-20T02:09:54;24.27;;;12.67;;
572;SDS011;271;51.114;13.780;2023-08-20T02:12:45;23.97;;;11.77;;
572;SDS011;271;51.114;13.780;2023-08-20T02:15:43;23.50;;;12.47;;
572;SDS011;271;51.114;13.780;2023-08-20T02:18:36;22.93;;;11.93;;
572;SDS011;271;51.114;13.780;2023-08-20T02:21:31;26.37;;;14.30;;
572;SDS011;271;51.114;13.780;2023-08-20T02:24:23;24.00;;;12.00;;
572;SDS011;271;51.114;13.780;2023-08-20T02:27:14;25.73;;;13.67;;
572;SDS011;271;51.114;13.780;2023-08-20T02:30:04;23.87;;;12.43;;
572;SDS011;271;51.114;13.780;2023-08-20T02:32:59;23.17;;;12.30;;
572;SDS011;271;51.114;13.780;2023-08-20T02:35:51;24.67;;;13.10;;
572;SDS011;271;51.114;13.780;2023-08-20T02:38:44;24.90;;;12.83;;
572;SDS011;271;51.114;13.780;2023-08-20T02:41:33;27.00;;;12.73;;
572;SDS011;271;51.114;13.780;2023-08-20T02:44:25;23.37;;;12.43;;
572;SDS011;271;51.114;13.780;2023-08-20T02:47:23;24.90;;;12.87;;
572;SDS011;271;51.114;13.780;2023-08-20T02:50:16;24.20;;;13.60;;
572;SDS011;271;51.114;13.780;2023-08-20T02:53:04;26.30;;;13.13;;
572;SDS011;271;51.114;13.780;2023-08-20T02:55:57;25.30;;;13.13;;
572;SDS011;271;51.114;13.780;2023-08-20T02:58:50;22.87;;;12.40;;
572;SDS011;271;51.114;13.780;2023-08-20T03:01:39;24.90;;;13.30;;
572;SDS011;271;51.114;13.780;2023-08-20T03:04:35;23.60;;;13.07;;
572;SDS011;271;51.114;13.780;2023-08-20T03:07:25;24.67;;;12.80;;
572;SDS011;271;51.114;13.780;2023-08-20T03:10:14;25.20;;;13.67;;
572;SDS011;271;51.114;13.780;2023-08-20T03:13:16;23.23;;;11.87;;
572;SDS011;271;51.114;13.780;2023-08-20T03:16:10;23.37;;;13.10;;
572;SDS011;271;51.114;13.780;2023-08-20T03:19:10;24.90;;;13.67;;
572;SDS011;271;51.114;13.780;2023-08-20T03:22:02;24.73;;;13.30;;
572;SDS011;271;51.114;13.780;2023-08-20T03:24:55;23.07;;;12.53;;
572;SDS011;271;51.114;13.780;2023-08-20T03:27:51;23.87;;;12.67;;
572;SDS011;271;51.114;13.780;2023-08-20T03:30:44;24.90;;;13.40;;
572;SDS011;271;51.114;13.780;2023-08-20T03:33:35;23.67;;;13.20;;
572;SDS011;271;51.114;13.780;2023-08-20T03:36:33;25.70;;;13.20;;
572;SDS011;271;51.114;13.780;2023-08-20T03:39:24;22.90;;;12.10;;
572;SDS011;271;51.114;13.780;2023-08-20T03:42:12;27.20;;;12.70;;
572;SDS011;271;51.114;13.780;2023-08-20T03:45:08;23.77;;;12.83;;
572;SDS011;271;51.114;13.780;2023-08-20T03:48:01;23.93;;;12.60;;
572;SDS011;271;51.114;13.780;2023-08-20T03:50:50;24.27;;;11.00;;
572;SDS011;271;51.114;13.780;2023-08-20T03:53:38;24.83;;;13.13;;
572;SDS011;271;51.114;13.780;2023-08-20T03:56:27;25.23;;;13.33;;
572;SDS011;271;51.114;13.780;2023-08-20T03:59:18;23.60;;;12.43;;
572;SDS011;271;51.114;13.780;2023-08-20T04:02:14;24.50;;;13.10;;
572;SDS011;271;51.114;13.780;2023-08-20T04:05:12;24.20;;;12.67;;
572;SDS011;271;51.114;13.780;2023-08-20T04:08:04;24.50;;;12.07;;
572;SDS011;271;51.114;13.780;2023-08-20T04:10:56;23.27;;;12.63;;
572;SDS011;271;51.114;13.780;2023-08-20T04:13:45;27.07;;;13.83;;
572;SDS011;271;51.114;13.780;2023-08-20T04:16:38;23.30;;;11.63;;
572;SDS011;271;51.114;13.780;2023-08-20T04:19:34;23.80;;;12.37;;
572;SDS011;271;51.114;13.780;2023-08-20T04:22:31;23.27;;;12.10;;
572;SDS011;271;51.114;13.780;2023-08-20T04:25:23;22.87;;;11.87;;
572;SDS011;271;51.114;13.780;2023-08-20T04:28:14;24.47;;;12.00;;
572;SDS011;271;51.114;13.780;2023-08-20T04:31:09;22.70;;;12.10;;
572;SDS011;271;51.114;13.780;2023-08-20T04:33:58;25.40;;;12.90;;
572;SDS011;271;51.114;13.780;2023-08-20T04:36:48;26.00;;;13.13;;
572;SDS011;271;51.114;13.780;2023-08-20T04:39:45;23.90;;;11.50;;
572;SDS011;271;51.114;13.780;2023-08-20T04:42:39;25.00;;;11.33;;
572;SDS011;271;51.114;13.780;2023-08-20T04:45:38;24.37;;;11.90;;
572;SDS011;271;51.114;13.780;2023-08-20T04:48:30;22.40;;;11.70;;
572;SDS011;271;51.114;13.780;2023-08-20T04:51:19;23.60;;;11.90;;
572;SDS011;271;51.114;13.780;2023-08-20T04:54:10;24.53;;;11.40;;
572;SDS011;271;51.114;13.780;2023-08-20T04:57:03;23.30;;;11.67;;
572;SDS011;271;51.114;13.780;2023-08-20T04:59:53;22.60;;;11.60;;
572;SDS011;271;51.114;13.780;2023-08-20T05:02:45;22.67;;;10.03;;
572;SDS011;271;51.114;13.780;2023-08-20T05:05:36;24.03;;;11.50;;
572;SDS011;271;51.114;13.780;2023-08-20T05:08:24;21.57;;;10.67;;
572;SDS011;271;51.114;13.780;2023-08-20T05:11:15;22.30;;;10.50;;
572;SDS011;271;51.114;13.780;2023-08-20T05:14:11;21.67;;;9.67;;
572;SDS011;271;51.114;13.780;2023-08-20T05:17:00;22.00;;;9.27;;
572;SDS011;271;51.114;13.780;2023-08-20T05:19:53;21.30;;;9.40;;
572;SDS011;271;51.114;13.780;2023-08-20T05:22:44;21.50;;;9.73;;
572;SDS011;271;51.114;13.780;2023-08-20T05:25:42;22.80;;;10.37;;
572;SDS011;271;51.114;13.780;2023-08-20T05:28:33;20.90;;;9.07;;
572;SDS011;271;51.114;13.780;2023-08-20T05:31:25;21.50;;;9.83;;
572;SDS011;271;51.114;13.780;2023-08-20T05:34:14;22.90;;;9.33;;
572;SDS011;271;51.114;13.780;2023-08-20T05:37:03;21.73;;;9.27;;
572;SDS011;271;51.114;13.780;2023-08-20T05:39:55;22.03;;;9.20;;
572;SDS011;271;51.114;13.780;2023-08-20T05:42:46;20.40;;;8.53;;
572;SDS011;271;51.114;13.780;2023-08-20T05:45:35;20.17;;;8.13;;
572;SDS011;271;51.114;13.780;2023-08-20T05:48:28;22.03;;;8.90;;
572;SDS011;271;51.114;13.780;2023-08-20T05:51:20;21.50;;;7.87;;
572;SDS011;271;51.114;13.780;2023-08-20T05:54:19;22.30;;;8.93;;
572;SDS011;271;51.114;13.780;2023-08-20T05:57:10;20.83;;;8.70;;
572;SDS011;271;51.114;13.780;2023-08-20T06:00:02;24.63;;;8.47;;
572;SDS011;271;51.114;13.780;2023-08-20T06:02:54;21.13;;;7.67;;
572;SDS011;271;51.114;13.780;2023-08-20T06:05:47;21.87;;;8.87;;
572;SDS011;271;51.114;13.780;2023-08-20T06:08:44;20.63;;;8.40;;
572;SDS011;271;51.114;13.780;2023-08-20T06:11:33;21.20;;;8.90;;
572;SDS011;271;51.114;13.780;2023-08-20T06:14:21;21.57;;;8.40;;
572;SDS011;271;51.114;13.780;2023-08-20T06:17:12;20.83;;;8.97;;
572;SDS011;271;51.114;13.780;2023-08-20T06:20:03;22.13;;;7.70;;
572;SDS011;271;51.114;13.780;2023-08-20T06:23:02;21.03;;;9.70;;
572;SDS011;271;51.114;13.780;2023-08-20T06:25:54;21.07;;;8.77;;
572;SDS011;271;51.114;13.780;2023-08-20T06:28:45;21.33;;;8.73;;
572;SDS011;271;51.114;13.780;2023-08-20T06:31:52;20.70;;;8.50;;
572;SDS011;271;51.114;13.780;2023-08-20T06:34:45;20.77;;;7.73;;
572;SDS011;271;51.114;13.780;2023-08-20T06:37:33;19.10;;;7.97;;
572;SDS011;271;51.114;13.780;2023-08-20T06:40:23;23.33;;;9.07;;
572;SDS011;271;51.114;13.780;2023-08-20T06:43:17;19.50;;;8.50;;
572;SDS011;271;51.114;13.780;2023-08-20T06:46:09;23.30;;;9.63;;
572;SDS011;271;51.114;13.780;2023-08-20T06:48:58;20.23;;;7.90;;
572;SDS011;271;51.114;13.780;2023-08-20T06:51:53;21.10;;;8.50;;
572;SDS011;271;51.114;13.780;2023-08-20T06:54:42;19.23;;;8.60;;
572;SDS011;271;51.114;13.780;2023-08-20T06:57:33;21.83;;;8.97;;
572;SDS011;271;51.114;13.780;2023-08-20T07:00:27;19.50;;;7.47;;
572;SDS011;271;51.114;13.780;2023-08-20T07:03:16;20.50;;;9.27;;
572;SDS011;271;51.114;13.780;2023-08-20T07:06:07;19.20;;;7.90;;
572;SDS011;271;51.114;13.780;2023-08-20T07:08:57;19.50;;;8.13;;
572;SDS011;271;51.114;13.780;2023-08-20T07:11:49;21.30;;;8.10;;
572;SDS011;271;51.114;13.780;2023-08-20T07:14:40;20.87;;;8.37;;
572;SDS011;271;51.114;13.780;2023-08-20T07:17:30;20.00;;;8.87;;
572;SDS011;271;51.114;13.780;2023-08-20T07:23:31;21.13;;;8.50;;
572;SDS011;271;51.114;13.780;2023-08-20T07:26:23;19.90;;;8.20;;
572;SDS011;271;51.114;13.780;2023-08-20T07:29:17;19.40;;;8.10;;
572;SDS011;271;51.114;13.780;2023-08-20T07:32:07;20.37;;;8.90;;
572;SDS011;271;51.114;13.780;2023-08-20T07:35:00;20.97;;;8.77;;
572;SDS011;271;51.114;13.780;2023-08-20T07:37:58;20.17;;;8.60;;
572;SDS011;271;51.114;13.780;2023-08-20T07:41:03;19.73;;;8.70;;
572;SDS011;271;51.114;13.780;2023-08-20T07:43:55;19.00;;;7.60;;
572;SDS011;271;51.114;13.780;2023-08-20T07:46:47;20.57;;;8.40;;
572;SDS011;271;51.114;13.780;2023-08-20T07:49:40;19.27;;;8.20;;
572;SDS011;271;51.114;13.780;2023-08-20T07:52:53;20.40;;;8.10;;
572;SDS011;271;51.114;13.780;2023-08-20T07:55:45;19.97;;;8.30;;
572;SDS011;271;51.114;13.780;2023-08-20T07:58:41;19.30;;;7.97;;
572;SDS011;271;51.114;13.780;2023-08-20T08:01:30;19.70;;;8.77;;
572;SDS011;271;51.114;13.780;2023-08-20T08:04:41;20.23;;;10.17;;
572;SDS011;271;51.114;13.780;2023-08-20T08:07:32;19.60;;;8.20;;
572;SDS011;271;51.114;13.780;2023-08-20T08:10:24;19.10;;;8.90;;
572;SDS011;271;51.114;13.780;2023-08-20T08:13:16;20.20;;;8.50;;
572;SDS011;271;51.114;13.780;2023-08-20T08:16:09;19.50;;;8.53;;
572;SDS011;271;51.114;13.780;2023-08-20T08:18:58;19.43;;;8.33;;
572;SDS011;271;51.114;13.780;2023-08-20T08:21:51;20.70;;;7.97;;
572;SDS011;271;51.114;13.780;2023-08-20T08:24:57;19.57;;;9.17;;
572;SDS011;271;51.114;13.780;2023-08-20T08:31:18;19.63;;;8.03;;
572;SDS011;271;51.114;13.780;2023-08-20T08:49:58;17.80;;;7.40;;
572;SDS011;271;51.114;13.780;2023-08-20T08:56:01;19.30;;;8.10;;
572;SDS011;271;51.114;13.780;2023-08-20T08:58:54;18.37;;;7.53;;
572;SDS011;271;51.114;13.780;2023-08-20T09:01:45;21.83;;;9.07;;
572;SDS011;271;51.114;13.780;2023-08-20T09:04:48;21.30;;;9.37;;
572;SDS011;271;51.114;13.780;2023-08-20T09:07:45;20.87;;;10.00;;
572;SDS011;271;51.114;13.780;2023-08-20T09:10:42;21.00;;;10.07;;
572;SDS011;271;51.114;13.780;2023-08-20T09:13:34;21.90;;;11.90;;
572;SDS011;271;51.114;13.780;2023-08-20T09:16:48;21.80;;;10.93;;
572;SDS011;271;51.114;13.780;2023-08-20T09:20:17;22.53;;;11.07;;
572;SDS011;271;51.114;13.780;2023-08-20T09:23:35;22.80;;;11.30;;
572;SDS011;271;51.114;13.780;2023-08-20T09:26:24;21.70;;;9.67;;
572;SDS011;271;51.114;13.780;2023-08-20T09:29:43;25.90;;;10.83;;
572;SDS011;271;51.114;13.780;2023-08-20T09:32:36;21.90;;;11.90;;
572;SDS011;271;51.114;13.780;2023-08-20T09:35:25;21.70;;;11.10;;
572;SDS011;271;51.114;13.780;2023-08-20T09:38:20;21.87;;;9.90;;
572;SDS011;271;51.114;13.780;2023-08-20T09:41:36;22.70;;;10.30;;
572;SDS011;271;51.114;13.780;2023-08-20T09:44:28;23.90;;;11.07;;
572;SDS011;271;51.114;13.780;2023-08-20T09:47:36;22.23;;;11.17;;
572;SDS011;271;51.114;13.780;2023-08-20T09:50:36;21.17;;;9.30;;
572;SDS011;271;51.114;13.780;2023-08-20T09:53:30;21.23;;;10.60;;
572;SDS011;271;51.114;13.780;2023-08-20T09:56:46;23.20;;;10.90;;
572;SDS011;271;51.114;13.780;2023-08-20T09:59:45;19.70;;;9.90;;
572;SDS011;271;51.114;13.780;2023-08-20T10:05:52;20.93;;;10.10;;
572;SDS011;271;51.114;13.780;2023-08-20T10:08:46;20.80;;;10.10;;
572;SDS011;271;51.114;13.780;2023-08-20T10:11:35;23.50;;;9.37;;
572;SDS011;271;51.114;13.780;2023-08-20T10:14:23;20.10;;;9.37;;
572;SDS011;271;51.114;13.780;2023-08-20T10:17:12;20.93;;;9.40;;
572;SDS011;271;51.114;13.780;2023-08-20T10:20:02;21.20;;;9.80;;
572;SDS011;271;51.114;13.780;2023-08-20T10:22:51;19.90;;;9.10;;
572;SDS011;271;51.114;13.780;2023-08-20T10:25:43;19.80;;;9.50;;
572;SDS011;271;51.114;13.780;2023-08-20T10:28:32;19.50;;;9.23;;
572;SDS011;271;51.114;13.780;2023-08-20T10:31:20;19.93;;;9.17;;
572;SDS011;271;51.114;13.780;2023-08-20T10:34:13;20.00;;;8.40;;
572;SDS011;271;51.114;13.780;2023-08-20T10:37:29;19.40;;;8.47;;
572;SDS011;271;51.114;13.780;2023-08-20T10:40:25;19.10;;;8.97;;
572;SDS011;271;51.114;13.780;2023-08-20T10:43:45;19.87;;;9.20;;
572;SDS011;271;51.114;13.780;2023-08-20T10:50:15;18.47;;;8.30;;
572;SDS011;271;51.114;13.780;2023-08-20T10:53:05;19.63;;;8.27;;
572;SDS011;271;51.114;13.780;2023-08-20T10:56:07;19.73;;;8.73;;
572;SDS011;271;51.114;13.780;2023-08-20T10:58:59;19.90;;;7.67;;
572;SDS011;271;51.114;13.780;2023-08-20T11:02:02;19.33;;;7.30;;
572;SDS011;271;51.114;13.780;2023-08-20T11:04:53;18.70;;;8.37;;
572;SDS011;271;51.114;13.780;2023-08-20T11:07:41;17.33;;;7.37;;
572;SDS011;271;51.114;13.780;2023-08-20T11:10:32;18.30;;;7.73;;
572;SDS011;271;51.114;13.780;2023-08-20T11:13:22;18.10;;;7.90;;
572;SDS011;271;51.114;13.780;2023-08-20T11:16:09;18.23;;;7.57;;
572;SDS011;271;51.114;13.780;2023-08-20T11:18:57;21.10;;;7.80;;
572;SDS011;271;51.114;13.780;2023-08-20T11:21:48;17.87;;;6.40;;
572;SDS011;271;51.114;13.780;2023-08-20T11:24:36;16.80;;;6.10;;
572;SDS011;271;51.114;13.780;2023-08-20T11:27:26;17.20;;;5.90;;
572;SDS011;271;51.114;13.780;2023-08-20T11:30:15;17.00;;;6.30;;
572;SDS011;271;51.114;13.780;2023-08-20T11:33:04;17.03;;;5.40;;
572;SDS011;271;51.114;13.780;2023-08-20T11:35:52;17.20;;;6.67;;
572;SDS011;271;51.114;13.780;2023-08-20T11:38:40;18.30;;;7.10;;
572;SDS011;271;51.114;13.780;2023-08-20T11:41:28;18.80;;;6.83;;
572;SDS011;271;51.114;13.780;2023-08-20T11:44:19;21.27;;;7.73;;
572;SDS011;271;51.114;13.780;2023-08-20T11:47:14;20.43;;;7.20;;
572;SDS011;271;51.114;13.780;2023-08-20T11:50:03;17.70;;;6.50;;
572;SDS011;271;51.114;13.780;2023-08-20T11:52:51;19.67;;;7.80;;
572;SDS011;271;51.114;13.780;2023-08-20T11:55:40;19.90;;;6.80;;
572;SDS011;271;51.114;13.780;2023-08-20T11:58:29;19.37;;;6.70;;
572;SDS011;271;51.114;13.780;2023-08-20T12:01:17;18.50;;;7.40;;
572;SDS011;271;51.114;13.780;2023-08-20T12:04:07;17.03;;;5.53;;
572;SDS011;271;51.114;13.780;2023-08-20T12:07:02;17.20;;;6.30;;
572;SDS011;271;51.114;13.780;2023-08-20T12:09:51;18.27;;;7.40;;
572;SDS011;271;51.114;13.780;2023-08-20T12:12:39;17.23;;;6.50;;
572;SDS011;271;51.114;13.780;2023-08-20T12:15:27;18.53;;;7.20;;
572;SDS011;271;51.114;13.780;2023-08-20T12:18:15;18.93;;;6.30;;
572;SDS011;271;51.114;13.780;2023-08-20T12:21:05;21.13;;;6.60;;
572;SDS011;271;51.114;13.780;2023-08-20T12:23:53;19.00;;;7.73;;
572;SDS011;271;51.114;13.780;2023-08-20T12:26:41;18.40;;;6.87;;
572;SDS011;271;51.114;13.780;2023-08-20T12:29:29;17.73;;;7.17;;
572;SDS011;271;51.114;13.780;2023-08-20T12:32:16;18.60;;;6.83;;
572;SDS011;271;51.114;13.780;2023-08-20T12:35:05;18.23;;;6.77;;
572;SDS011;271;51.114;13.780;2023-08-20T12:37:54;18.57;;;7.23;;
572;SDS011;271;51.114;13.780;2023-08-20T12:40:42;19.50;;;7.20;;
572;SDS011;271;51.114;13.780;2023-08-20T12:43:29;18.47;;;7.40;;
572;SDS011;271;51.114;13.780;2023-08-20T12:46:17;17.33;;;6.17;;
572;SDS011;271;51.114;13.780;2023-08-20T12:49:05;20.23;;;7.77;;
572;SDS011;271;51.114;13.780;2023-08-20T12:51:53;18.10;;;6.47;;
572;SDS011;271;51.114;13.780;2023-08-20T12:54:42;16.90;;;6.40;;
572;SDS011;271;51.114;13.780;2023-08-20T12:57:34;20.03;;;7.43;;
572;SDS011;271;51.114;13.780;2023-08-20T13:00:22;18.90;;;7.70;;
572;SDS011;271;51.114;13.780;2023-08-20T13:03:11;20.43;;;8.33;;
572;SDS011;271;51.114;13.780;2023-08-20T13:06:00;16.80;;;6.10;;
572;SDS011;271;51.114;13.780;2023-08-20T13:08:48;17.87;;;6.67;;
572;SDS011;271;51.114;13.780;2023-08-20T13:11:37;18.00;;;7.00;;
572;SDS011;271;51.114;13.780;2023-08-20T13:14:26;18.30;;;6.30;;
572;SDS011;271;51.114;13.780;2023-08-20T13:17:23;17.87;;;6.90;;
572;SDS011;271;51.114;13.780;2023-08-20T13:20:11;18.63;;;7.07;;
572;SDS011;271;51.114;13.780;2023-08-20T13:22:58;19.57;;;8.07;;
572;SDS011;271;51.114;13.780;2023-08-20T13:25:46;18.07;;;7.00;;
572;SDS011;271;51.114;13.780;2023-08-20T13:28:35;19.40;;;7.67;;
572;SDS011;271;51.114;13.780;2023-08-20T13:31:28;18.40;;;7.10;;
572;SDS011;271;51.114;13.780;2023-08-20T13:34:16;18.20;;;6.73;;
572;SDS011;271;51.114;13.780;2023-08-20T13:37:04;17.30;;;6.70;;
572;SDS011;271;51.114;13.780;2023-08-20T13:39:56;18.07;;;6.50;;
572;SDS011;271;51.114;13.780;2023-08-20T13:42:43;17.40;;;7.20;;
572;SDS011;271;51.114;13.780;2023-08-20T13:45:32;18.03;;;7.47;;
572;SDS011;271;51.114;13.780;2023-08-20T13:48:20;19.57;;;7.60;;
572;SDS011;271;51.114;13.780;2023-08-20T13:51:08;17.40;;;6.00;;
572;SDS011;271;51.114;13.780;2023-08-20T13:53:56;17.90;;;7.30;;
572;SDS011;271;51.114;13.780;2023-08-20T13:56:43;17.70;;;7.20;;
572;SDS011;271;51.114;13.780;2023-08-20T13:59:31;16.73;;;6.00;;
572;SDS011;271;51.114;13.780;2023-08-20T14:02:20;17.87;;;6.97;;
572;SDS011;271;51.114;13.780;2023-08-20T14:05:08;19.03;;;6.70;;
572;SDS011;271;51.114;13.780;2023-08-20T14:07:56;19.90;;;7.00;;
572;SDS011;271;51.114;13.780;2023-08-20T14:10:44;18.00;;;7.00;;
572;SDS011;271;51.114;13.780;2023-08-20T14:13:32;19.10;;;6.83;;
572;SDS011;271;51.114;13.780;2023-08-20T14:16:22;18.00;;;7.33;;
572;SDS011;271;51.114;13.780;2023-08-20T14:19:11;17.30;;;6.90;;
572;SDS011;271;51.114;13.780;2023-08-20T14:22:00;16.77;;;6.93;;
572;SDS011;271;51.114;13.780;2023-08-20T14:24:48;17.43;;;6.53;;
572;SDS011;271;51.114;13.780;2023-08-20T14:27:39;17.30;;;6.30;;
572;SDS011;271;51.114;13.780;2023-08-20T14:30:26;18.50;;;6.50;;
572;SDS011;271;51.114;13.780;2023-08-20T14:33:17;18.80;;;7.03;;
572;SDS011;271;51.114;13.780;2023-08-20T14:36:06;19.03;;;7.57;;
572;SDS011;271;51.114;13.780;2023-08-20T14:38:54;20.17;;;7.47;;
572;SDS011;271;51.114;13.780;2023-08-20T14:41:42;17.63;;;7.30;;
572;SDS011;271;51.114;13.780;2023-08-20T14:44:32;18.87;;;7.60;;
572;SDS011;271;51.114;13.780;2023-08-20T14:47:19;19.57;;;7.97;;
572;SDS011;271;51.114;13.780;2023-08-20T14:50:10;17.00;;;6.70;;
572;SDS011;271;51.114;13.780;2023-08-20T14:52:59;18.30;;;8.83;;
572;SDS011;271;51.114;13.780;2023-08-20T14:55:48;18.23;;;6.70;;
572;SDS011;271;51.114;13.780;2023-08-20T14:58:35;18.47;;;7.43;;
572;SDS011;271;51.114;13.780;2023-08-20T15:01:26;19.50;;;8.13;;
572;SDS011;271;51.114;13.780;2023-08-20T15:04:14;17.97;;;7.37;;
572;SDS011;271;51.114;13.780;2023-08-20T15:07:05;18.20;;;6.80;;
572;SDS011;271;51.114;13.780;2023-08-20T15:09:54;17.60;;;7.10;;
572;SDS011;271;51.114;13.780;2023-08-20T15:12:42;17.90;;;7.70;;
572;SDS011;271;51.114;13.780;2023-08-20T15:15:29;19.10;;;8.03;;
572;SDS011;271;51.114;13.780;2023-08-20T15:18:19;17.70;;;7.17;;
572;SDS011;271;51.114;13.780;2023-08-20T15:21:07;21.40;;;7.20;;
572;SDS011;271;51.114;13.780;2023-08-20T15:29:08;18.23;;;7.47;;
572;SDS011;271;51.114;13.780;2023-08-20T15:32:03;18.57;;;7.47;;
572;SDS011;271;51.114;13.780;2023-08-20T15:34:51;18.77;;;7.37;;
572;SDS011;271;51.114;13.780;2023-08-20T15:37:39;20.60;;;8.03;;
572;SDS011;271;51.114;13.780;2023-08-20T15:40:26;18.37;;;7.83;;
572;SDS011;271;51.114;13.780;2023-08-20T15:43:14;17.57;;;6.90;;
572;SDS011;271;51.114;13.780;2023-08-20T15:46:06;19.70;;;7.63;;
572;SDS011;271;51.114;13.780;2023-08-20T15:48:53;18.90;;;7.80;;
572;SDS011;271;51.114;13.780;2023-08-20T15:51:41;17.60;;;6.43;;
572;SDS011;271;51.114;13.780;2023-08-20T15:54:30;17.90;;;7.00;;
572;SDS011;271;51.114;13.780;2023-08-20T15:57:18;19.00;;;7.30;;
572;SDS011;271;51.114;13.780;2023-08-20T16:00:06;17.13;;;6.63;;
572;SDS011;271;51.114;13.780;2023-08-20T16:03:01;20.57;;;7.70;;
572;SDS011;271;51.114;13.780;2023-08-20T16:05:49;17.70;;;7.00;;
572;SDS011;271;51.114;13.780;2023-08-20T16:08:37;18.50;;;6.60;;
572;SDS011;271;51.114;13.780;2023-08-20T16:11:28;18.17;;;7.10;;
572;SDS011;271;51.114;13.780;2023-08-20T16:14:15;17.30;;;6.40;;
572;SDS011;271;51.114;13.780;2023-08-20T16:17:03;18.40;;;7.43;;
572;SDS011;271;51.114;13.780;2023-08-20T16:20:18;19.70;;;7.07;;
572;SDS011;271;51.114;13.780;2023-08-20T16:23:06;18.03;;;6.47;;
572;SDS011;271;51.114;13.780;2023-08-20T16:26:03;19.73;;;6.93;;
572;SDS011;271;51.114;13.780;2023-08-20T16:28:54;18.20;;;7.40;;
572;SDS011;271;51.114;13.780;2023-08-20T16:31:42;17.50;;;7.43;;
572;SDS011;271;51.114;13.780;2023-08-20T16:35:00;21.83;;;7.50;;
572;SDS011;271;51.114;13.780;2023-08-20T16:38:19;19.37;;;7.30;;
572;SDS011;271;51.114;13.780;2023-08-20T16:41:08;18.00;;;7.37;;
572;SDS011;271;51.114;13.780;2023-08-20T16:43:57;18.27;;;7.70;;
572;SDS011;271;51.114;13.780;2023-08-20T16:46:44;18.70;;;7.40;;
572;SDS011;271;51.114;13.780;2023-08-20T16:49:35;19.67;;;7.10;;
572;SDS011;271;51.114;13.780;2023-08-20T16:52:23;19.43;;;7.30;;
572;SDS011;271;51.114;13.780;2023-08-20T16:55:13;17.77;;;7.10;;
572;SDS011;271;51.114;13.780;2023-08-20T16:58:01;19.00;;;7.67;;
572;SDS011;271;51.114;13.780;2023-08-20T17:00:49;18.87;;;7.53;;
572;SDS011;271;51.114;13.780;2023-08-20T17:03:39;18.03;;;6.90;;
572;SDS011;271;51.114;13.780;2023-08-20T17:06:30;18.50;;;6.70;;
572;SDS011;271;51.114;13.780;2023-08-20T17:09:18;19.73;;;7.23;;
572;SDS011;271;51.114;13.780;2023-08-20T17:12:07;21.60;;;8.20;;
572;SDS011;271;51.114;13.780;2023-08-20T17:14:55;18.30;;;7.17;;
572;SDS011;271;51.114;13.780;2023-08-20T17:17:43;18.67;;;6.87;;
572;SDS011;271;51.114;13.780;2023-08-20T17:20:31;19.30;;;7.57;;
572;SDS011;271;51.114;13.780;2023-08-20T17:23:20;20.30;;;7.87;;
572;SDS011;271;51.114;13.780;2023-08-20T17:26:09;19.13;;;7.17;;
572;SDS011;271;51.114;13.780;2023-08-20T17:28:58;20.40;;;7.37;;
572;SDS011;271;51.114;13.780;2023-08-20T17:31:46;20.23;;;7.47;;
572;SDS011;271;51.114;13.780;2023-08-20T17:34:34;18.77;;;6.33;;
572;SDS011;271;51.114;13.780;2023-08-20T17:37:25;18.20;;;6.67;;
572;SDS011;271;51.114;13.780;2023-08-20T17:40:15;23.90;;;7.43;;
572;SDS011;271;51.114;13.780;2023-08-20T17:43:03;22.27;;;6.93;;
572;SDS011;271;51.114;13.780;2023-08-20T17:45:53;18.90;;;6.53;;
572;SDS011;271;51.114;13.780;2023-08-20T17:48:41;19.73;;;6.87;;
572;SDS011;271;51.114;13.780;2023-08-20T17:51:32;19.87;;;7.20;;
572;SDS011;271;51.114;13.780;2023-08-20T17:54:20;19.27;;;6.30;;
572;SDS011;271;51.114;13.780;2023-08-20T17:57:10;21.57;;;6.37;;
572;SDS011;271;51.114;13.780;2023-08-20T17:59:58;22.07;;;7.07;;
572;SDS011;271;51.114;13.780;2023-08-20T18:02:50;21.47;;;7.70;;
572;SDS011;271;51.114;13.780;2023-08-20T18:05:37;20.03;;;7.37;;
572;SDS011;271;51.114;13.780;2023-08-20T18:08:28;21.10;;;7.57;;
572;SDS011;271;51.114;13.780;2023-08-20T18:11:18;22.13;;;7.37;;
572;SDS011;271;51.114;13.780;2023-08-20T18:14:06;23.73;;;8.10;;
572;SDS011;271;51.114;13.780;2023-08-20T18:19:49;22.93;;;8.87;;
572;SDS011;271;51.114;13.780;2023-08-20T18:22:37;22.60;;;8.50;;
572;SDS011;271;51.114;13.780;2023-08-20T18:25:25;22.13;;;8.90;;
572;SDS011;271;51.114;13.780;2023-08-20T18:28:12;18.97;;;7.50;;